Main page
METAR-TAF:

METAR-TAF

Airports :

Campina Grande Airport

Campina Grande, Paraíba, Brazil

latitude: 07-13S, longitude: 035-53W, elevation: 548 m

Current weather observation

The report was made 3 hours and 18 minutes ago, at 00:00 UTC
Wind 12 kt from the East
Temperature 22°C
Humidity 83%
Pressure 1014 hPa
Visibility 10 km or more
no clouds below 1500 m and no cumulonimbus

METAR: SBKG 200000Z 08012KT CAVOK 22/19 Q1014

Time: 00:18 (03:18 UTC)

Forecast

The report was made 5 hours and 18 minutes ago, at 22:00 UTC
Forecast valid from 20 at 00 UTC to 20 at 12 UTC
Wind 9 kt from the East
Visibility 10 km or more
Scattered clouds at a height of 1200 ft
Becoming
from 20 at 01 UTC to 20 at 03 UTC
Broken clouds at a height of 700 ft
Becoming
from 20 at 09 UTC to 20 at 11 UTC
Wind 12 kt from the East
Broken clouds at a height of 1500 ft

TAF: SBKG 192200Z 2000/2012 08009KT 9999 SCT012 TN21/2007Z TX25/2011Z BECMG 2001/2003 BKN007 BECMG 2009/2011 09012KT BKN015 RMK PEA

Weather observations and forecasts of more than 4000 airports (METAR and TAF reports).

The available stations are represented by yellow and red dots on the map.

Hover mouse over dot to see the name of the station.

Then click to see weather observations and forecasts.

To change the map : click on the green buttons with a black cross to zoom in, on the green button with a dash to zoom out, or on the green arrows for adjacent maps.


METAR-TAF: